sensor_id;sensor_type;location;lat;lon;timestamp;P1;durP1;ratioP1;P2;durP2;ratioP2
49540;SDS011;35432;43.566;1.398;2023-03-21T00:01:22;10.33;;;4.10;;
49540;SDS011;35432;43.566;1.398;2023-03-21T00:03:47;8.47;;;3.50;;
49540;SDS011;35432;43.566;1.398;2023-03-21T00:06:13;9.98;;;3.78;;
49540;SDS011;35432;43.566;1.398;2023-03-21T00:08:39;7.80;;;3.80;;
49540;SDS011;35432;43.566;1.398;2023-03-21T00:11:05;9.38;;;4.28;;
49540;SDS011;35432;43.566;1.398;2023-03-21T00:13:33;11.00;;;3.55;;
49540;SDS011;35432;43.566;1.398;2023-03-21T00:16:12;8.90;;;3.50;;
49540;SDS011;35432;43.566;1.398;2023-03-21T00:18:42;9.57;;;3.65;;
49540;SDS011;35432;43.566;1.398;2023-03-21T00:21:10;8.83;;;3.50;;
49540;SDS011;35432;43.566;1.398;2023-03-21T00:23:39;8.77;;;3.47;;
49540;SDS011;35432;43.566;1.398;2023-03-21T00:26:05;6.95;;;3.40;;
49540;SDS011;35432;43.566;1.398;2023-03-21T00:28:34;8.45;;;3.38;;
49540;SDS011;35432;43.566;1.398;2023-03-21T00:31:04;9.43;;;3.53;;
49540;SDS011;35432;43.566;1.398;2023-03-21T00:33:30;10.03;;;3.53;;
49540;SDS011;35432;43.566;1.398;2023-03-21T00:35:56;8.98;;;3.58;;
49540;SDS011;35432;43.566;1.398;2023-03-21T00:38:22;9.33;;;3.23;;
49540;SDS011;35432;43.566;1.398;2023-03-21T00:40:48;11.40;;;3.88;;
49540;SDS011;35432;43.566;1.398;2023-03-21T00:43:14;8.18;;;3.95;;
49540;SDS011;35432;43.566;1.398;2023-03-21T00:45:47;13.23;;;4.10;;
49540;SDS011;35432;43.566;1.398;2023-03-21T00:48:13;9.40;;;4.00;;
49540;SDS011;35432;43.566;1.398;2023-03-21T00:50:39;10.18;;;3.80;;
49540;SDS011;35432;43.566;1.398;2023-03-21T00:53:06;10.53;;;4.03;;
49540;SDS011;35432;43.566;1.398;2023-03-21T00:55:31;9.55;;;4.32;;
49540;SDS011;35432;43.566;1.398;2023-03-21T00:57:57;12.15;;;4.20;;
49540;SDS011;35432;43.566;1.398;2023-03-21T01:00:23;9.30;;;3.90;;
49540;SDS011;35432;43.566;1.398;2023-03-21T01:02:49;10.43;;;4.07;;
49540;SDS011;35432;43.566;1.398;2023-03-21T01:05:24;9.90;;;4.10;;
49540;SDS011;35432;43.566;1.398;2023-03-21T01:08:14;10.40;;;4.28;;
49540;SDS011;35432;43.566;1.398;2023-03-21T01:10:41;8.95;;;4.03;;
49540;SDS011;35432;43.566;1.398;2023-03-21T01:13:09;10.15;;;4.25;;
49540;SDS011;35432;43.566;1.398;2023-03-21T01:15:35;12.55;;;4.35;;
49540;SDS011;35432;43.566;1.398;2023-03-21T01:18:06;9.13;;;4.23;;
49540;SDS011;35432;43.566;1.398;2023-03-21T01:20:31;11.75;;;4.40;;
49540;SDS011;35432;43.566;1.398;2023-03-21T01:22:57;10.93;;;3.93;;
49540;SDS011;35432;43.566;1.398;2023-03-21T01:25:22;10.33;;;3.53;;
49540;SDS011;35432;43.566;1.398;2023-03-21T01:27:47;8.67;;;3.53;;
49540;SDS011;35432;43.566;1.398;2023-03-21T01:30:13;11.50;;;4.13;;
49540;SDS011;35432;43.566;1.398;2023-03-21T01:32:38;9.15;;;3.38;;
49540;SDS011;35432;43.566;1.398;2023-03-21T01:35:04;11.30;;;4.07;;
49540;SDS011;35432;43.566;1.398;2023-03-21T01:37:30;8.90;;;3.40;;
49540;SDS011;35432;43.566;1.398;2023-03-21T01:39:56;8.82;;;3.78;;
49540;SDS011;35432;43.566;1.398;2023-03-21T01:42:22;9.40;;;3.70;;
49540;SDS011;35432;43.566;1.398;2023-03-21T01:45:57;9.40;;;3.70;;
49540;SDS011;35432;43.566;1.398;2023-03-21T01:47:54;9.00;;;3.70;;
49540;SDS011;35432;43.566;1.398;2023-03-21T01:50:19;9.00;;;3.87;;
49540;SDS011;35432;43.566;1.398;2023-03-21T01:52:47;10.35;;;3.25;;
49540;SDS011;35432;43.566;1.398;2023-03-21T01:55:14;8.68;;;3.58;;
49540;SDS011;35432;43.566;1.398;2023-03-21T01:57:42;9.57;;;3.95;;
49540;SDS011;35432;43.566;1.398;2023-03-21T02:00:11;11.07;;;3.80;;
49540;SDS011;35432;43.566;1.398;2023-03-21T02:02:41;7.85;;;3.58;;
49540;SDS011;35432;43.566;1.398;2023-03-21T02:05:25;9.55;;;3.63;;
49540;SDS011;35432;43.566;1.398;2023-03-21T02:08:02;8.93;;;3.40;;
49540;SDS011;35432;43.566;1.398;2023-03-21T02:10:27;9.27;;;3.80;;
49540;SDS011;35432;43.566;1.398;2023-03-21T02:12:55;10.07;;;3.70;;
49540;SDS011;35432;43.566;1.398;2023-03-21T02:15:34;8.35;;;3.58;;
49540;SDS011;35432;43.566;1.398;2023-03-21T02:18:06;7.50;;;3.17;;
49540;SDS011;35432;43.566;1.398;2023-03-21T02:23:41;9.57;;;4.07;;
49540;SDS011;35432;43.566;1.398;2023-03-21T02:28:57;6.63;;;3.13;;
49540;SDS011;35432;43.566;1.398;2023-03-21T02:31:36;10.87;;;3.87;;
49540;SDS011;35432;43.566;1.398;2023-03-21T02:45:40;9.13;;;3.50;;
49540;SDS011;35432;43.566;1.398;2023-03-21T02:48:12;10.27;;;3.50;;
49540;SDS011;35432;43.566;1.398;2023-03-21T02:53:17;7.93;;;3.55;;
49540;SDS011;35432;43.566;1.398;2023-03-21T02:55:46;7.75;;;3.63;;
49540;SDS011;35432;43.566;1.398;2023-03-21T02:58:18;6.87;;;3.27;;
49540;SDS011;35432;43.566;1.398;2023-03-21T03:00:45;8.93;;;3.30;;
49540;SDS011;35432;43.566;1.398;2023-03-21T03:03:12;7.90;;;3.55;;
49540;SDS011;35432;43.566;1.398;2023-03-21T03:05:44;8.80;;;3.92;;
49540;SDS011;35432;43.566;1.398;2023-03-21T03:13:29;9.20;;;3.67;;
49540;SDS011;35432;43.566;1.398;2023-03-21T03:18:55;7.97;;;3.03;;
49540;SDS011;35432;43.566;1.398;2023-03-21T03:23:58;8.75;;;4.07;;
49540;SDS011;35432;43.566;1.398;2023-03-21T03:29:18;8.32;;;3.63;;
49540;SDS011;35432;43.566;1.398;2023-03-21T03:32:33;10.02;;;4.20;;
49540;SDS011;35432;43.566;1.398;2023-03-21T03:34:52;8.50;;;4.10;;
49540;SDS011;35432;43.566;1.398;2023-03-21T03:37:26;8.15;;;3.60;;
49540;SDS011;35432;43.566;1.398;2023-03-21T03:39:59;8.40;;;4.10;;
49540;SDS011;35432;43.566;1.398;2023-03-21T03:42:39;6.95;;;3.55;;
49540;SDS011;35432;43.566;1.398;2023-03-21T03:45:09;9.57;;;4.18;;
49540;SDS011;35432;43.566;1.398;2023-03-21T03:47:56;10.55;;;4.10;;
49540;SDS011;35432;43.566;1.398;2023-03-21T03:50:41;10.70;;;3.70;;
49540;SDS011;35432;43.566;1.398;2023-03-21T03:55:42;9.00;;;4.07;;
49540;SDS011;35432;43.566;1.398;2023-03-21T03:58:08;9.80;;;4.10;;
49540;SDS011;35432;43.566;1.398;2023-03-21T04:00:34;9.18;;;4.10;;
49540;SDS011;35432;43.566;1.398;2023-03-21T04:03:01;8.10;;;3.60;;
49540;SDS011;35432;43.566;1.398;2023-03-21T04:05:26;8.38;;;3.97;;
49540;SDS011;35432;43.566;1.398;2023-03-21T04:07:52;9.97;;;4.43;;
49540;SDS011;35432;43.566;1.398;2023-03-21T04:10:18;8.57;;;3.83;;
49540;SDS011;35432;43.566;1.398;2023-03-21T04:12:45;7.95;;;3.70;;
49540;SDS011;35432;43.566;1.398;2023-03-21T04:15:10;9.10;;;4.40;;
49540;SDS011;35432;43.566;1.398;2023-03-21T04:17:37;11.18;;;4.05;;
49540;SDS011;35432;43.566;1.398;2023-03-21T04:20:03;8.73;;;3.60;;
49540;SDS011;35432;43.566;1.398;2023-03-21T04:22:30;8.70;;;3.65;;
49540;SDS011;35432;43.566;1.398;2023-03-21T04:24:57;9.18;;;3.75;;
49540;SDS011;35432;43.566;1.398;2023-03-21T04:27:25;9.85;;;3.70;;
49540;SDS011;35432;43.566;1.398;2023-03-21T04:29:51;10.43;;;4.18;;
49540;SDS011;35432;43.566;1.398;2023-03-21T04:32:16;8.10;;;3.57;;
49540;SDS011;35432;43.566;1.398;2023-03-21T04:34:43;8.90;;;3.70;;
49540;SDS011;35432;43.566;1.398;2023-03-21T04:37:14;12.80;;;3.87;;
49540;SDS011;35432;43.566;1.398;2023-03-21T04:39:41;9.35;;;3.95;;
49540;SDS011;35432;43.566;1.398;2023-03-21T04:42:06;12.07;;;4.05;;
49540;SDS011;35432;43.566;1.398;2023-03-21T04:44:32;8.67;;;4.00;;
49540;SDS011;35432;43.566;1.398;2023-03-21T04:46:57;11.83;;;4.00;;
49540;SDS011;35432;43.566;1.398;2023-03-21T04:49:23;9.02;;;4.00;;
49540;SDS011;35432;43.566;1.398;2023-03-21T04:51:48;8.87;;;4.20;;
49540;SDS011;35432;43.566;1.398;2023-03-21T04:54:13;9.93;;;3.87;;
49540;SDS011;35432;43.566;1.398;2023-03-21T04:56:39;9.50;;;3.73;;
49540;SDS011;35432;43.566;1.398;2023-03-21T04:59:06;9.77;;;4.47;;
49540;SDS011;35432;43.566;1.398;2023-03-21T05:01:36;13.00;;;4.60;;
49540;SDS011;35432;43.566;1.398;2023-03-21T05:04:02;7.97;;;4.00;;
49540;SDS011;35432;43.566;1.398;2023-03-21T05:06:29;9.43;;;3.88;;
49540;SDS011;35432;43.566;1.398;2023-03-21T05:08:55;7.80;;;3.50;;
49540;SDS011;35432;43.566;1.398;2023-03-21T05:11:24;12.25;;;4.35;;
49540;SDS011;35432;43.566;1.398;2023-03-21T05:13:50;8.07;;;3.63;;
49540;SDS011;35432;43.566;1.398;2023-03-21T05:16:16;10.30;;;4.00;;
49540;SDS011;35432;43.566;1.398;2023-03-21T05:18:41;10.57;;;4.87;;
49540;SDS011;35432;43.566;1.398;2023-03-21T05:21:06;10.15;;;4.20;;
49540;SDS011;35432;43.566;1.398;2023-03-21T05:23:34;8.73;;;3.90;;
49540;SDS011;35432;43.566;1.398;2023-03-21T05:26:11;11.30;;;4.70;;
49540;SDS011;35432;43.566;1.398;2023-03-21T05:28:36;11.57;;;5.10;;
49540;SDS011;35432;43.566;1.398;2023-03-21T05:31:04;11.55;;;4.80;;
49540;SDS011;35432;43.566;1.398;2023-03-21T05:33:30;12.55;;;4.60;;
49540;SDS011;35432;43.566;1.398;2023-03-21T05:35:56;13.13;;;4.73;;
49540;SDS011;35432;43.566;1.398;2023-03-21T05:38:22;11.45;;;4.35;;
49540;SDS011;35432;43.566;1.398;2023-03-21T05:40:48;9.88;;;4.18;;
49540;SDS011;35432;43.566;1.398;2023-03-21T05:43:14;9.93;;;4.25;;
49540;SDS011;35432;43.566;1.398;2023-03-21T05:45:40;7.87;;;3.80;;
49540;SDS011;35432;43.566;1.398;2023-03-21T05:48:06;9.20;;;4.22;;
49540;SDS011;35432;43.566;1.398;2023-03-21T05:50:31;12.00;;;4.10;;
49540;SDS011;35432;43.566;1.398;2023-03-21T05:52:57;12.67;;;4.37;;
49540;SDS011;35432;43.566;1.398;2023-03-21T05:55:22;15.40;;;4.80;;
49540;SDS011;35432;43.566;1.398;2023-03-21T05:57:48;9.85;;;4.05;;
49540;SDS011;35432;43.566;1.398;2023-03-21T06:00:14;9.20;;;4.07;;
49540;SDS011;35432;43.566;1.398;2023-03-21T06:02:40;10.20;;;3.83;;
49540;SDS011;35432;43.566;1.398;2023-03-21T06:05:06;11.50;;;4.38;;
49540;SDS011;35432;43.566;1.398;2023-03-21T06:07:32;9.97;;;4.30;;
49540;SDS011;35432;43.566;1.398;2023-03-21T06:09:57;11.00;;;4.50;;
49540;SDS011;35432;43.566;1.398;2023-03-21T06:12:23;8.90;;;4.30;;
49540;SDS011;35432;43.566;1.398;2023-03-21T06:14:48;14.60;;;4.80;;
49540;SDS011;35432;43.566;1.398;2023-03-21T06:17:14;9.87;;;4.20;;
49540;SDS011;35432;43.566;1.398;2023-03-21T06:19:39;11.17;;;4.90;;
49540;SDS011;35432;43.566;1.398;2023-03-21T06:22:05;12.20;;;4.20;;
49540;SDS011;35432;43.566;1.398;2023-03-21T06:24:30;8.60;;;4.40;;
49540;SDS011;35432;43.566;1.398;2023-03-21T06:26:56;12.27;;;4.83;;
49540;SDS011;35432;43.566;1.398;2023-03-21T06:29:21;11.75;;;5.72;;
49540;SDS011;35432;43.566;1.398;2023-03-21T06:31:47;15.70;;;6.30;;
49540;SDS011;35432;43.566;1.398;2023-03-21T06:34:12;11.93;;;5.70;;
49540;SDS011;35432;43.566;1.398;2023-03-21T06:36:38;12.03;;;5.67;;
49540;SDS011;35432;43.566;1.398;2023-03-21T06:39:03;12.23;;;5.77;;
49540;SDS011;35432;43.566;1.398;2023-03-21T06:41:31;14.20;;;6.18;;
49540;SDS011;35432;43.566;1.398;2023-03-21T06:43:56;13.70;;;5.87;;
49540;SDS011;35432;43.566;1.398;2023-03-21T06:46:22;15.37;;;5.63;;
49540;SDS011;35432;43.566;1.398;2023-03-21T06:48:47;12.20;;;5.70;;
49540;SDS011;35432;43.566;1.398;2023-03-21T06:51:13;11.13;;;4.97;;
49540;SDS011;35432;43.566;1.398;2023-03-21T06:53:39;12.55;;;5.28;;
49540;SDS011;35432;43.566;1.398;2023-03-21T06:56:05;11.25;;;5.00;;
49540;SDS011;35432;43.566;1.398;2023-03-21T06:58:32;12.82;;;4.72;;
49540;SDS011;35432;43.566;1.398;2023-03-21T07:00:58;12.93;;;4.50;;
49540;SDS011;35432;43.566;1.398;2023-03-21T07:03:25;11.35;;;4.20;;
49540;SDS011;35432;43.566;1.398;2023-03-21T07:05:51;11.73;;;4.53;;
49540;SDS011;35432;43.566;1.398;2023-03-21T07:10:42;15.55;;;4.88;;
49540;SDS011;35432;43.566;1.398;2023-03-21T07:13:08;12.68;;;5.20;;
49540;SDS011;35432;43.566;1.398;2023-03-21T07:15:34;10.63;;;4.65;;
49540;SDS011;35432;43.566;1.398;2023-03-21T07:18:05;11.27;;;4.20;;
49540;SDS011;35432;43.566;1.398;2023-03-21T07:20:33;11.27;;;4.72;;
49540;SDS011;35432;43.566;1.398;2023-03-21T07:22:59;12.68;;;4.63;;
49540;SDS011;35432;43.566;1.398;2023-03-21T07:25:24;11.47;;;4.07;;
49540;SDS011;35432;43.566;1.398;2023-03-21T07:27:50;13.35;;;4.75;;
49540;SDS011;35432;43.566;1.398;2023-03-21T07:30:16;12.70;;;4.60;;
49540;SDS011;35432;43.566;1.398;2023-03-21T07:32:42;13.07;;;4.40;;
49540;SDS011;35432;43.566;1.398;2023-03-21T07:35:09;10.57;;;4.32;;
49540;SDS011;35432;43.566;1.398;2023-03-21T07:37:37;12.57;;;4.55;;
49540;SDS011;35432;43.566;1.398;2023-03-21T07:40:03;13.80;;;4.50;;
49540;SDS011;35432;43.566;1.398;2023-03-21T07:42:38;11.90;;;4.63;;
49540;SDS011;35432;43.566;1.398;2023-03-21T07:45:05;9.88;;;4.40;;
49540;SDS011;35432;43.566;1.398;2023-03-21T07:47:32;11.52;;;4.00;;
49540;SDS011;35432;43.566;1.398;2023-03-21T07:49:58;14.63;;;4.83;;
49540;SDS011;35432;43.566;1.398;2023-03-21T07:52:23;11.13;;;4.25;;
49540;SDS011;35432;43.566;1.398;2023-03-21T07:54:49;13.10;;;5.22;;
49540;SDS011;35432;43.566;1.398;2023-03-21T07:57:15;12.53;;;4.40;;
49540;SDS011;35432;43.566;1.398;2023-03-21T07:59:41;10.82;;;4.43;;
49540;SDS011;35432;43.566;1.398;2023-03-21T08:02:08;14.37;;;4.57;;
49540;SDS011;35432;43.566;1.398;2023-03-21T08:04:37;13.40;;;5.60;;
49540;SDS011;35432;43.566;1.398;2023-03-21T08:07:02;11.73;;;5.00;;
49540;SDS011;35432;43.566;1.398;2023-03-21T08:09:28;12.03;;;5.00;;
49540;SDS011;35432;43.566;1.398;2023-03-21T08:11:53;12.13;;;4.40;;
49540;SDS011;35432;43.566;1.398;2023-03-21T08:14:19;8.85;;;3.97;;
49540;SDS011;35432;43.566;1.398;2023-03-21T08:16:44;10.77;;;3.50;;
49540;SDS011;35432;43.566;1.398;2023-03-21T08:19:10;9.43;;;3.87;;
49540;SDS011;35432;43.566;1.398;2023-03-21T08:21:36;10.37;;;3.93;;
49540;SDS011;35432;43.566;1.398;2023-03-21T08:24:03;8.20;;;3.63;;
49540;SDS011;35432;43.566;1.398;2023-03-21T08:26:28;8.27;;;3.75;;
49540;SDS011;35432;43.566;1.398;2023-03-21T08:28:56;12.82;;;4.03;;
49540;SDS011;35432;43.566;1.398;2023-03-21T08:31:21;8.27;;;3.93;;
49540;SDS011;35432;43.566;1.398;2023-03-21T08:33:46;11.30;;;3.80;;
49540;SDS011;35432;43.566;1.398;2023-03-21T08:36:15;11.23;;;3.92;;
49540;SDS011;35432;43.566;1.398;2023-03-21T08:38:40;9.57;;;3.90;;
49540;SDS011;35432;43.566;1.398;2023-03-21T08:41:05;14.10;;;3.93;;
49540;SDS011;35432;43.566;1.398;2023-03-21T08:43:31;13.30;;;4.03;;
49540;SDS011;35432;43.566;1.398;2023-03-21T08:45:56;12.53;;;4.00;;
49540;SDS011;35432;43.566;1.398;2023-03-21T08:48:22;11.13;;;3.47;;
49540;SDS011;35432;43.566;1.398;2023-03-21T08:50:47;13.20;;;4.87;;
49540;SDS011;35432;43.566;1.398;2023-03-21T08:53:13;11.73;;;3.90;;
49540;SDS011;35432;43.566;1.398;2023-03-21T08:55:38;15.23;;;4.37;;
49540;SDS011;35432;43.566;1.398;2023-03-21T08:58:04;12.87;;;4.30;;
49540;SDS011;35432;43.566;1.398;2023-03-21T09:00:31;18.33;;;4.18;;
49540;SDS011;35432;43.566;1.398;2023-03-21T09:02:56;10.10;;;4.38;;
49540;SDS011;35432;43.566;1.398;2023-03-21T09:05:23;12.45;;;3.97;;
49540;SDS011;35432;43.566;1.398;2023-03-21T09:07:50;11.60;;;3.73;;
49540;SDS011;35432;43.566;1.398;2023-03-21T09:12:44;12.90;;;4.03;;
49540;SDS011;35432;43.566;1.398;2023-03-21T09:15:09;10.63;;;4.33;;
49540;SDS011;35432;43.566;1.398;2023-03-21T09:17:36;9.70;;;3.70;;
49540;SDS011;35432;43.566;1.398;2023-03-21T09:20:07;11.50;;;4.18;;
49540;SDS011;35432;43.566;1.398;2023-03-21T09:22:45;11.27;;;3.90;;
49540;SDS011;35432;43.566;1.398;2023-03-21T09:25:12;13.60;;;3.90;;
49540;SDS011;35432;43.566;1.398;2023-03-21T09:27:39;9.87;;;3.50;;
49540;SDS011;35432;43.566;1.398;2023-03-21T09:30:05;9.98;;;3.72;;
49540;SDS011;35432;43.566;1.398;2023-03-21T09:32:31;10.37;;;3.90;;
49540;SDS011;35432;43.566;1.398;2023-03-21T09:34:58;7.20;;;3.30;;
49540;SDS011;35432;43.566;1.398;2023-03-21T09:37:23;7.33;;;3.43;;
49540;SDS011;35432;43.566;1.398;2023-03-21T09:39:49;11.07;;;3.57;;
49540;SDS011;35432;43.566;1.398;2023-03-21T09:42:31;9.23;;;3.45;;
49540;SDS011;35432;43.566;1.398;2023-03-21T09:48:22;9.88;;;3.72;;
49540;SDS011;35432;43.566;1.398;2023-03-21T09:51:04;7.82;;;3.15;;
49540;SDS011;35432;43.566;1.398;2023-03-21T09:53:37;7.40;;;3.13;;
49540;SDS011;35432;43.566;1.398;2023-03-21T09:56:05;12.80;;;3.80;;
49540;SDS011;35432;43.566;1.398;2023-03-21T09:58:37;9.70;;;3.77;;
49540;SDS011;35432;43.566;1.398;2023-03-21T10:03:34;12.13;;;4.13;;
49540;SDS011;35432;43.566;1.398;2023-03-21T10:06:04;10.95;;;4.00;;
49540;SDS011;35432;43.566;1.398;2023-03-21T10:08:40;12.75;;;3.60;;
49540;SDS011;35432;43.566;1.398;2023-03-21T10:11:19;11.53;;;3.60;;
49540;SDS011;35432;43.566;1.398;2023-03-21T10:13:56;9.43;;;3.47;;
49540;SDS011;35432;43.566;1.398;2023-03-21T10:16:27;10.15;;;4.40;;
49540;SDS011;35432;43.566;1.398;2023-03-21T10:18:55;9.48;;;3.90;;
49540;SDS011;35432;43.566;1.398;2023-03-21T10:21:24;10.52;;;3.45;;
49540;SDS011;35432;43.566;1.398;2023-03-21T10:23:52;11.77;;;3.60;;
49540;SDS011;35432;43.566;1.398;2023-03-21T10:26:20;10.00;;;3.97;;
49540;SDS011;35432;43.566;1.398;2023-03-21T10:28:48;13.43;;;4.20;;
49540;SDS011;35432;43.566;1.398;2023-03-21T10:31:15;11.82;;;4.55;;
49540;SDS011;35432;43.566;1.398;2023-03-21T10:33:43;12.52;;;4.13;;
49540;SDS011;35432;43.566;1.398;2023-03-21T10:36:14;11.57;;;3.90;;
49540;SDS011;35432;43.566;1.398;2023-03-21T10:38:52;9.88;;;4.13;;
49540;SDS011;35432;43.566;1.398;2023-03-21T10:41:20;9.80;;;4.43;;
49540;SDS011;35432;43.566;1.398;2023-03-21T10:43:46;13.13;;;4.80;;
49540;SDS011;35432;43.566;1.398;2023-03-21T10:46:27;10.30;;;3.60;;
49540;SDS011;35432;43.566;1.398;2023-03-21T10:48:52;11.45;;;4.00;;
49540;SDS011;35432;43.566;1.398;2023-03-21T10:51:20;10.70;;;3.80;;
49540;SDS011;35432;43.566;1.398;2023-03-21T10:54:12;10.82;;;4.03;;
49540;SDS011;35432;43.566;1.398;2023-03-21T10:56:43;14.43;;;3.38;;
49540;SDS011;35432;43.566;1.398;2023-03-21T10:59:16;8.63;;;2.63;;
49540;SDS011;35432;43.566;1.398;2023-03-21T11:01:49;7.32;;;2.35;;
49540;SDS011;35432;43.566;1.398;2023-03-21T11:04:17;9.10;;;3.10;;
49540;SDS011;35432;43.566;1.398;2023-03-21T11:07:04;7.32;;;2.47;;
49540;SDS011;35432;43.566;1.398;2023-03-21T11:09:45;6.82;;;2.75;;
49540;SDS011;35432;43.566;1.398;2023-03-21T11:12:14;9.97;;;2.73;;
49540;SDS011;35432;43.566;1.398;2023-03-21T11:14:45;7.55;;;3.35;;
49540;SDS011;35432;43.566;1.398;2023-03-21T11:19:46;8.00;;;3.00;;
49540;SDS011;35432;43.566;1.398;2023-03-21T11:22:15;6.93;;;2.80;;
49540;SDS011;35432;43.566;1.398;2023-03-21T11:24:48;6.73;;;2.80;;
49540;SDS011;35432;43.566;1.398;2023-03-21T11:27:17;9.15;;;3.22;;
49540;SDS011;35432;43.566;1.398;2023-03-21T11:29:48;5.22;;;2.60;;
49540;SDS011;35432;43.566;1.398;2023-03-21T11:32:25;8.57;;;2.90;;
49540;SDS011;35432;43.566;1.398;2023-03-21T11:37:43;9.10;;;2.90;;
49540;SDS011;35432;43.566;1.398;2023-03-21T11:40:30;9.55;;;3.00;;
49540;SDS011;35432;43.566;1.398;2023-03-21T11:45:26;7.40;;;3.07;;
49540;SDS011;35432;43.566;1.398;2023-03-21T11:47:54;6.20;;;2.55;;
49540;SDS011;35432;43.566;1.398;2023-03-21T11:50:30;6.07;;;2.55;;
49540;SDS011;35432;43.566;1.398;2023-03-21T11:56:14;6.73;;;2.30;;
49540;SDS011;35432;43.566;1.398;2023-03-21T11:58:45;7.30;;;2.60;;
49540;SDS011;35432;43.566;1.398;2023-03-21T12:01:22;6.53;;;2.83;;
49540;SDS011;35432;43.566;1.398;2023-03-21T12:06:59;7.03;;;2.83;;
49540;SDS011;35432;43.566;1.398;2023-03-21T12:20:13;6.97;;;2.80;;
49540;SDS011;35432;43.566;1.398;2023-03-21T12:23:45;7.60;;;2.90;;
49540;SDS011;35432;43.566;1.398;2023-03-21T12:32:27;7.78;;;2.50;;
49540;SDS011;35432;43.566;1.398;2023-03-21T12:37:50;7.13;;;2.83;;
49540;SDS011;35432;43.566;1.398;2023-03-21T12:43:17;7.05;;;2.47;;
49540;SDS011;35432;43.566;1.398;2023-03-21T12:45:53;5.93;;;2.28;;
49540;SDS011;35432;43.566;1.398;2023-03-21T12:51:28;6.20;;;1.83;;
49540;SDS011;35432;43.566;1.398;2023-03-21T12:54:22;6.95;;;1.92;;
49540;SDS011;35432;43.566;1.398;2023-03-21T12:56:56;5.45;;;1.92;;
49540;SDS011;35432;43.566;1.398;2023-03-21T13:02:30;5.10;;;1.90;;
49540;SDS011;35432;43.566;1.398;2023-03-21T13:07:57;5.40;;;2.08;;
49540;SDS011;35432;43.566;1.398;2023-03-21T13:10:24;6.68;;;1.80;;
49540;SDS011;35432;43.566;1.398;2023-03-21T13:13:35;5.28;;;1.90;;
49540;SDS011;35432;43.566;1.398;2023-03-21T13:15:52;7.07;;;1.70;;
49540;SDS011;35432;43.566;1.398;2023-03-21T13:21:04;5.05;;;1.65;;
49540;SDS011;35432;43.566;1.398;2023-03-21T13:23:36;5.55;;;1.83;;
49540;SDS011;35432;43.566;1.398;2023-03-21T13:26:03;6.57;;;1.77;;
49540;SDS011;35432;43.566;1.398;2023-03-21T13:28:34;6.10;;;1.60;;
49540;SDS011;35432;43.566;1.398;2023-03-21T13:33:44;6.88;;;1.58;;
49540;SDS011;35432;43.566;1.398;2023-03-21T13:36:13;14.82;;;2.30;;
49540;SDS011;35432;43.566;1.398;2023-03-21T13:38:40;5.22;;;1.30;;
49540;SDS011;35432;43.566;1.398;2023-03-21T13:41:06;5.33;;;1.50;;
49540;SDS011;35432;43.566;1.398;2023-03-21T13:46:44;7.07;;;1.35;;
49540;SDS011;35432;43.566;1.398;2023-03-21T13:49:33;7.03;;;2.40;;
49540;SDS011;35432;43.566;1.398;2023-03-21T13:52:00;3.95;;;1.27;;
49540;SDS011;35432;43.566;1.398;2023-03-21T13:54:53;6.35;;;1.60;;
49540;SDS011;35432;43.566;1.398;2023-03-21T13:57:21;6.47;;;1.20;;
49540;SDS011;35432;43.566;1.398;2023-03-21T14:02:52;10.27;;;3.27;;
49540;SDS011;35432;43.566;1.398;2023-03-21T14:05:24;6.15;;;1.35;;
49540;SDS011;35432;43.566;1.398;2023-03-21T14:07:53;4.95;;;1.08;;
49540;SDS011;35432;43.566;1.398;2023-03-21T14:12:47;3.20;;;0.90;;
49540;SDS011;35432;43.566;1.398;2023-03-21T14:15:21;3.85;;;0.80;;
49540;SDS011;35432;43.566;1.398;2023-03-21T14:17:52;6.90;;;1.05;;
49540;SDS011;35432;43.566;1.398;2023-03-21T14:20:27;5.77;;;0.90;;
49540;SDS011;35432;43.566;1.398;2023-03-21T14:22:55;4.50;;;1.00;;
49540;SDS011;35432;43.566;1.398;2023-03-21T14:25:22;4.60;;;1.00;;
49540;SDS011;35432;43.566;1.398;2023-03-21T14:27:52;4.75;;;1.05;;
49540;SDS011;35432;43.566;1.398;2023-03-21T14:30:31;5.90;;;0.90;;
49540;SDS011;35432;43.566;1.398;2023-03-21T14:33:12;5.15;;;1.05;;
49540;SDS011;35432;43.566;1.398;2023-03-21T14:35:39;4.70;;;1.08;;
49540;SDS011;35432;43.566;1.398;2023-03-21T14:38:06;5.43;;;1.10;;
49540;SDS011;35432;43.566;1.398;2023-03-21T14:40:34;5.47;;;1.10;;
49540;SDS011;35432;43.566;1.398;2023-03-21T14:43:03;6.43;;;0.82;;
49540;SDS011;35432;43.566;1.398;2023-03-21T14:45:30;3.38;;;0.80;;
49540;SDS011;35432;43.566;1.398;2023-03-21T14:48:02;5.07;;;1.05;;
49540;SDS011;35432;43.566;1.398;2023-03-21T14:50:38;4.27;;;0.87;;
49540;SDS011;35432;43.566;1.398;2023-03-21T14:53:18;6.32;;;2.35;;
49540;SDS011;35432;43.566;1.398;2023-03-21T14:55:47;6.43;;;1.00;;
49540;SDS011;35432;43.566;1.398;2023-03-21T14:58:20;3.47;;;0.80;;
49540;SDS011;35432;43.566;1.398;2023-03-21T15:00:48;4.45;;;0.80;;
49540;SDS011;35432;43.566;1.398;2023-03-21T15:03:15;5.43;;;0.90;;
49540;SDS011;35432;43.566;1.398;2023-03-21T15:05:43;3.55;;;0.90;;
49540;SDS011;35432;43.566;1.398;2023-03-21T15:08:20;6.25;;;1.10;;
49540;SDS011;35432;43.566;1.398;2023-03-21T15:10:55;4.18;;;1.13;;
49540;SDS011;35432;43.566;1.398;2023-03-21T15:13:45;4.85;;;0.80;;
49540;SDS011;35432;43.566;1.398;2023-03-21T15:16:16;5.17;;;1.00;;
49540;SDS011;35432;43.566;1.398;2023-03-21T15:18:43;4.45;;;0.70;;
49540;SDS011;35432;43.566;1.398;2023-03-21T15:21:14;3.42;;;0.93;;
49540;SDS011;35432;43.566;1.398;2023-03-21T15:23:47;4.50;;;1.20;;
49540;SDS011;35432;43.566;1.398;2023-03-21T15:26:18;4.03;;;0.80;;
49540;SDS011;35432;43.566;1.398;2023-03-21T15:28:47;5.53;;;0.83;;
49540;SDS011;35432;43.566;1.398;2023-03-21T15:31:18;5.55;;;0.90;;
49540;SDS011;35432;43.566;1.398;2023-03-21T15:33:49;4.88;;;0.98;;
49540;SDS011;35432;43.566;1.398;2023-03-21T15:36:18;3.88;;;0.77;;
49540;SDS011;35432;43.566;1.398;2023-03-21T15:38:46;8.88;;;0.98;;
49540;SDS011;35432;43.566;1.398;2023-03-21T15:43:48;3.78;;;0.80;;
49540;SDS011;35432;43.566;1.398;2023-03-21T15:46:40;3.60;;;0.88;;
49540;SDS011;35432;43.566;1.398;2023-03-21T15:51:51;4.15;;;1.10;;
49540;SDS011;35432;43.566;1.398;2023-03-21T15:55:09;4.50;;;0.90;;
49540;SDS011;35432;43.566;1.398;2023-03-21T16:00:04;5.32;;;1.08;;
49540;SDS011;35432;43.566;1.398;2023-03-21T16:02:44;4.57;;;1.13;;
49540;SDS011;35432;43.566;1.398;2023-03-21T16:05:20;6.05;;;1.40;;
49540;SDS011;35432;43.566;1.398;2023-03-21T16:07:47;5.17;;;1.50;;
49540;SDS011;35432;43.566;1.398;2023-03-21T16:13:12;5.80;;;1.58;;
49540;SDS011;35432;43.566;1.398;2023-03-21T16:15:38;4.60;;;1.20;;
49540;SDS011;35432;43.566;1.398;2023-03-21T16:18:04;3.90;;;1.20;;
49540;SDS011;35432;43.566;1.398;2023-03-21T16:20:32;4.47;;;1.20;;
49540;SDS011;35432;43.566;1.398;2023-03-21T16:23:04;3.53;;;1.10;;
49540;SDS011;35432;43.566;1.398;2023-03-21T16:25:30;5.17;;;1.40;;
49540;SDS011;35432;43.566;1.398;2023-03-21T16:27:57;5.18;;;1.35;;
49540;SDS011;35432;43.566;1.398;2023-03-21T16:30:23;6.10;;;1.30;;
49540;SDS011;35432;43.566;1.398;2023-03-21T16:32:48;6.50;;;1.10;;
49540;SDS011;35432;43.566;1.398;2023-03-21T16:35:14;5.40;;;1.20;;
49540;SDS011;35432;43.566;1.398;2023-03-21T16:37:40;4.40;;;1.00;;
49540;SDS011;35432;43.566;1.398;2023-03-21T16:40:13;5.32;;;1.10;;
49540;SDS011;35432;43.566;1.398;2023-03-21T16:42:44;4.22;;;1.00;;
49540;SDS011;35432;43.566;1.398;2023-03-21T16:45:10;3.87;;;1.13;;
49540;SDS011;35432;43.566;1.398;2023-03-21T16:47:35;5.00;;;1.40;;
49540;SDS011;35432;43.566;1.398;2023-03-21T16:50:01;7.13;;;1.53;;
49540;SDS011;35432;43.566;1.398;2023-03-21T16:52:34;5.75;;;1.20;;
49540;SDS011;35432;43.566;1.398;2023-03-21T16:55:00;4.45;;;1.20;;